.
WxDataArchive / Data Records for 2007-10-24
2007-10-23 October 2007 2007-10-25

Data Records for Wednesday, 24 October 2007

Time	Temp	Chill	HIndex	Humid	Dewpt	 Wind 	HiWind	WindDir	Rain 	Barom 
-----	----	-----	------	-----	-----	------	------	-------	-----	----- 
00:00	46.8	46.8	46.8	92	44.6	0	0	---	0.00	29.839 
00:05	46.7	46.7	46.7	92	44.5	0	0	---	0.00	29.839 
00:10	46.7	46.7	46.7	93	44.8	0	0	---	0.00	29.834 
00:15	46.5	46.5	46.5	93	44.6	0	0	---	0.00	29.830 
00:20	46.5	46.5	46.5	93	44.6	0	0	---	0.00	29.832 
00:25	46.4	46.4	46.4	93	44.5	0	0	---	0.00	29.832 
00:30	46.4	46.4	46.4	93	44.5	0	0	---	0.00	29.834 
00:35	46.4	46.4	46.4	93	44.5	0	0	---	0.00	29.830 
00:40	46.4	46.4	46.4	94	44.8	0	0	---	0.00	29.825 
00:45	46.2	46.2	46.2	94	44.6	0	0	---	0.00	29.823 
00:50	46.2	46.2	46.2	94	44.6	0	0	---	0.00	29.826 
00:55	46.2	46.2	46.2	94	44.6	0	0	---	0.00	29.827 
01:00	46.2	46.2	46.2	94	44.6	0	0	---	0.00	29.835 
01:05	46.2	46.2	46.2	94	44.6	0	1	22	0.00	29.835 
01:10	46.4	46.4	46.4	94	44.8	0	2	22	0.00	29.838 
01:15	46.5	46.5	46.5	95	45.1	0	2	0	0.00	29.840 
01:20	46.5	46.5	46.5	95	45.1	0	1	0	0.00	29.839 
01:25	46.5	46.5	46.5	95	45.1	0	1	0	0.00	29.839 
01:30	46.5	46.5	46.5	95	45.1	0	1	0	0.00	29.842 
01:35	46.5	46.5	46.5	94	44.9	0	1	0	0.00	29.846 
01:40	46.5	46.5	46.5	94	44.9	0	0	---	0.00	29.839 
01:45	46.5	46.5	46.5	94	44.9	0	0	---	0.00	29.836 
01:50	46.5	46.5	46.5	94	44.9	0	0	---	0.00	29.824 
01:55	46.5	46.5	46.5	94	44.9	0	0	---	0.00	29.833 
02:00	46.5	46.5	46.5	94	44.9	0	0	---	0.00	29.833 
02:05	46.5	46.5	46.5	94	44.9	0	1	0	0.00	29.838 
02:10	46.5	46.5	46.5	94	44.9	0	0	---	0.00	29.839 
02:15	46.4	46.4	46.4	94	44.8	0	0	---	0.00	29.840 
02:20	46.4	46.4	46.4	94	44.8	0	0	---	0.00	29.837 
02:25	46.2	46.2	46.2	94	44.6	0	0	---	0.00	29.839 
02:30	46.2	46.2	46.2	94	44.6	0	0	---	0.00	29.842 
02:35	46.2	46.2	46.2	94	44.6	0	1	0	0.00	29.855 
02:40	46.1	46.1	46.1	94	44.5	0	0	---	0.00	29.855 
02:45	46.1	46.1	46.1	94	44.5	0	1	0	0.00	29.856 
02:50	46.2	46.2	46.2	94	44.6	0	1	0	0.00	29.856 
02:55	46.2	46.2	46.2	94	44.6	0	1	0	0.00	29.862 
03:00	46.2	46.2	46.2	94	44.6	0	1	0	0.00	29.858 
03:05	46.2	46.2	46.2	94	44.6	0	1	0	0.00	29.855 
03:10	46.2	46.2	46.2	94	44.6	0	0	---	0.00	29.855 
03:15	46.2	46.2	46.2	94	44.6	0	1	0	0.00	29.860 
03:20	46.2	46.2	46.2	94	44.6	0	0	---	0.00	29.856 
03:25	46.2	46.2	46.2	94	44.6	0	0	---	0.00	29.857 
03:30	46.2	46.2	46.2	94	44.6	0	0	---	0.00	29.864 
03:35	46.2	46.2	46.2	94	44.6	0	0	---	0.00	29.860 
03:40	46.2	46.2	46.2	94	44.6	0	1	0	0.00	29.866 
03:45	46.2	46.2	46.2	94	44.6	0	1	0	0.00	29.870 
03:50	46.2	46.2	46.2	95	44.8	0	2	338	0.00	29.879 
03:55	46.4	46.4	46.4	94	44.8	0	1	338	0.00	29.872 
04:00	46.5	46.5	46.5	94	44.9	0	1	338	0.00	29.869 
04:05	46.5	46.5	46.5	94	44.9	0	1	338	0.00	29.861 
04:10	46.7	46.7	46.7	94	45.1	0	1	338	0.00	29.876 
04:15	46.7	46.7	46.7	94	45.1	0	1	338	0.00	29.870 
04:20	46.7	46.7	46.7	93	44.8	0	1	338	0.00	29.871 
04:25	46.8	46.8	46.8	93	44.9	0	1	338	0.00	29.882 
04:30	46.8	46.8	46.8	92	44.6	0	2	338	0.00	29.879 
04:35	46.8	46.8	46.8	92	44.6	0	1	338	0.00	29.879 
04:40	46.8	46.8	46.8	92	44.6	0	1	338	0.00	29.888 
04:45	46.8	46.8	46.8	91	44.3	0	1	338	0.00	29.888 
04:50	47.0	47.0	47.0	91	44.5	0	1	338	0.00	29.884 
04:55	47.0	47.0	47.0	90	44.2	0	1	338	0.00	29.887 
05:00	47.0	47.0	47.0	89	43.9	0	2	338	0.00	29.895 
05:05	47.0	47.0	47.0	89	43.9	0	2	338	0.00	29.899 
05:10	47.1	47.1	47.1	88	43.7	0	2	338	0.00	29.896 
05:15	47.1	47.1	47.1	87	43.4	0	1	338	0.00	29.900 
05:20	47.1	47.1	47.1	86	43.1	0	1	338	0.00	29.913 
05:25	47.1	47.1	47.1	86	43.1	0	1	338	0.00	29.920 
05:30	47.1	47.1	47.1	86	43.1	0	1	338	0.00	29.922 
05:35	47.1	47.1	47.1	85	42.8	0	1	338	0.00	29.930 
05:40	47.1	47.1	47.1	85	42.8	0	1	338	0.00	29.921 
05:45	47.0	47.0	47.0	85	42.7	0	1	338	0.00	29.917 
05:50	47.0	47.0	47.0	85	42.7	0	1	338	0.00	29.907 
05:55	46.8	46.8	46.8	85	42.5	0	1	338	0.00	29.905 
06:00	46.8	46.8	46.8	85	42.5	0	2	338	0.00	29.910 
06:05	46.8	46.8	46.8	85	42.5	0	1	338	0.00	29.907 
06:10	46.7	46.7	46.7	85	42.4	0	1	338	0.00	29.912 
06:15	46.7	46.7	46.7	85	42.4	0	1	338	0.00	29.911 
06:20	46.7	46.7	46.7	84	42.1	0	2	338	0.00	29.917 
06:25	46.8	46.8	46.8	84	42.2	0	2	338	0.00	29.914 
06:30	46.8	46.8	46.8	84	42.2	0	2	315	0.00	29.919 
06:35	46.7	46.7	46.7	84	42.1	0	1	315	0.00	29.920 
06:40	46.7	46.7	46.7	84	42.1	0	1	315	0.00	29.922 
06:45	46.7	46.7	46.7	83	41.8	0	2	315	0.00	29.925 
06:50	46.5	46.5	46.5	83	41.6	0	1	315	0.00	29.931 
06:55	46.5	46.5	46.5	83	41.6	0	1	315	0.00	29.936 
07:00	46.4	46.4	46.4	83	41.5	0	2	315	0.00	29.938 
07:05	46.4	46.4	46.4	83	41.5	0	1	315	0.00	29.939 
07:10	46.2	46.2	46.2	83	41.3	0	1	315	0.00	29.937 
07:15	46.4	46.4	46.4	82	41.2	0	1	315	0.00	29.944 
07:20	46.4	46.4	46.4	82	41.2	0	1	315	0.00	29.954 
07:25	46.4	46.4	46.4	82	41.2	0	1	315	0.00	29.956 
07:30	46.4	46.4	46.4	81	40.9	0	1	315	0.00	29.955 
07:35	46.4	46.4	46.4	81	40.9	0	1	315	0.00	29.963 
07:40	46.4	46.4	46.4	81	40.9	0	0	---	0.00	29.968 
07:45	46.4	46.4	46.4	81	40.9	0	1	315	0.00	29.971 
07:50	46.4	46.4	46.4	81	40.9	0	2	315	0.00	29.975 
07:55	46.4	46.4	46.4	81	40.9	0	0	---	0.00	29.978 
08:00	46.4	46.4	46.4	81	40.9	0	1	315	0.00	29.980 
08:05	46.4	46.4	46.4	81	40.9	0	1	315	0.00	29.985 
08:10	46.5	46.5	46.5	80	40.7	0	1	315	0.00	29.989 
08:15	46.5	46.5	46.5	81	41.0	0	1	315	0.00	29.986 
08:20	46.5	46.5	46.5	80	40.7	0	3	315	0.00	29.984 
08:25	46.7	46.7	46.7	79	40.5	0	1	135	0.00	29.981 
08:30	46.7	46.7	46.7	79	40.5	0	2	202	0.00	29.985 
08:35	46.8	46.8	46.8	79	40.6	0	1	202	0.00	29.985 
08:40	46.8	46.8	46.8	79	40.6	0	2	292	0.00	29.983 
08:45	46.8	46.8	46.8	79	40.6	0	1	292	0.00	29.984 
08:50	46.8	46.8	46.8	78	40.3	0	2	338	0.00	29.978 
08:55	46.8	46.8	46.8	78	40.3	0	3	315	0.00	29.982 
09:00	47.0	47.0	47.0	79	40.8	0	1	315	0.00	29.983 
09:05	47.0	47.0	47.0	78	40.5	0	2	315	0.00	29.985 
09:10	47.0	47.0	47.0	78	40.5	0	1	315	0.00	29.986 
09:15	47.1	47.1	47.1	78	40.6	0	1	315	0.00	29.985 
09:20	47.3	47.3	47.3	78	40.8	0	2	315	0.00	29.988 
09:25	47.4	47.4	47.4	77	40.6	0	4	0	0.00	29.991 
09:30	47.6	47.6	47.6	77	40.8	1	3	90	0.00	29.996 
09:35	47.7	47.7	47.7	76	40.5	0	2	292	0.00	29.997 
09:40	47.9	47.9	47.9	77	41.0	0	1	292	0.00	30.004 
09:45	48.0	48.0	48.0	76	40.8	0	2	292	0.00	30.003 
09:50	48.2	48.2	48.2	76	41.0	0	3	292	0.00	30.012 
09:55	48.3	48.3	48.3	75	40.7	0	2	315	0.00	30.014 
10:00	48.5	48.5	48.5	74	40.6	0	1	315	0.00	30.016 
10:05	48.8	48.8	48.8	75	41.2	0	2	338	0.00	30.016 
10:10	48.9	48.9	48.9	74	41.0	1	3	90	0.00	30.016 
10:15	49.2	49.2	49.2	74	41.3	0	4	68	0.00	30.017 
10:20	49.4	49.4	49.4	74	41.5	0	3	135	0.00	30.020 
10:25	49.5	49.5	49.5	73	41.2	0	2	135	0.00	30.027 
10:30	49.6	49.6	49.6	73	41.3	0	3	135	0.00	30.030 
10:35	49.6	49.6	49.6	71	40.6	1	3	112	0.00	30.028 
10:40	49.8	49.8	49.8	70	40.4	1	6	90	0.00	30.031 
10:45	49.6	49.6	49.6	69	39.9	1	6	90	0.00	30.030 
10:50	49.8	49.8	49.8	69	40.0	1	3	90	0.00	30.036 
10:55	49.9	49.9	49.9	69	40.1	1	4	90	0.00	30.039 
11:00	50.1	50.1	50.1	69	40.3	2	6	90	0.00	30.034 
11:05	50.2	50.2	50.2	69	40.4	1	4	90	0.00	30.040 
11:10	50.4	50.4	50.4	68	40.2	2	5	112	0.00	30.046 
11:15	50.2	50.2	50.2	66	39.3	2	5	112	0.00	30.046 
11:20	50.4	50.4	50.4	67	39.9	1	4	112	0.00	30.048 
11:25	50.5	50.5	50.5	67	40.0	1	4	112	0.00	30.046 
11:30	50.7	50.7	50.7	67	40.1	1	4	112	0.00	30.042 
11:35	50.8	50.8	50.8	67	40.2	0	1	135	0.00	30.042 
11:40	50.8	50.8	50.8	67	40.2	0	2	225	0.00	30.036 
11:45	51.0	51.0	51.0	66	40.0	0	2	270	0.00	30.044 
11:50	51.0	51.0	51.0	65	39.7	0	3	0	0.00	30.045 
11:55	51.1	51.1	51.1	67	40.5	0	1	0	0.00	30.041 
12:00	51.3	51.3	51.3	65	39.9	1	3	292	0.00	30.040 
12:05	51.4	51.4	51.4	64	39.6	1	4	270	0.00	30.035 
12:10	51.4	51.4	51.4	64	39.6	0	4	292	0.00	30.031 
12:15	51.4	51.4	51.4	65	40.0	1	3	22	0.00	30.032 
12:20	51.7	51.7	51.7	66	40.7	0	4	90	0.00	30.031 
12:25	51.9	51.9	51.9	62	39.3	1	2	22	0.00	30.044 
12:30	51.7	51.7	51.7	63	39.5	1	3	315	0.00	30.031 
12:35	51.7	51.7	51.7	62	39.1	1	5	292	0.00	30.028 
12:40	52.0	52.0	52.0	62	39.4	1	3	292	0.00	30.033 
12:45	51.9	51.9	51.9	62	39.3	1	4	292	0.00	30.040 
12:50	52.3	52.3	52.3	64	40.5	1	4	90	0.00	30.035 
12:55	52.2	52.2	52.2	61	39.2	1	6	292	0.00	30.040 
13:00	52.5	52.5	52.5	61	39.4	0	2	45	0.00	30.031 
13:05	52.5	52.5	52.5	58	38.2	1	5	270	0.00	30.031 
13:10	52.3	52.3	52.3	58	38.0	1	4	315	0.00	30.031 
13:15	52.8	52.8	52.8	60	39.3	1	5	135	0.00	30.028 
13:20	52.9	52.9	52.9	58	38.5	1	3	22	0.00	30.028 
13:25	53.2	53.2	53.2	59	39.2	1	3	22	0.00	30.030 
13:30	53.8	53.8	53.8	57	38.9	1	3	338	0.00	30.036 
13:35	54.1	54.1	54.1	56	38.8	1	7	0	0.00	30.038 
13:40	54.1	54.1	54.1	57	39.2	1	5	292	0.00	30.043 
13:45	53.3	53.3	53.3	55	37.5	1	4	338	0.00	30.040 
13:50	53.1	53.1	53.1	54	36.9	1	5	292	0.00	30.042 
13:55	52.9	52.9	52.9	58	38.5	0	4	315	0.00	30.040 
14:00	53.2	53.2	53.2	58	38.8	1	6	135	0.00	30.042 
14:05	52.8	52.8	52.8	58	38.4	0	2	338	0.00	30.045 
14:10	52.6	52.6	52.6	59	38.7	0	2	338	0.00	30.046 
14:15	52.6	52.6	52.6	58	38.2	1	4	315	0.00	30.046 
14:20	52.6	52.6	52.6	58	38.2	1	3	0	0.00	30.045 
14:25	52.6	52.6	52.6	59	38.7	1	3	112	0.00	30.048 
14:30	52.8	52.8	52.8	61	39.7	1	3	135	0.00	30.048 
14:35	52.8	52.8	52.8	59	38.9	1	3	112	0.00	30.046 
14:40	52.9	52.9	52.9	57	38.1	0	2	90	0.00	30.048 
14:45	52.9	52.9	52.9	57	38.1	1	4	90	0.00	30.056 
14:50	52.9	52.9	52.9	58	38.5	1	4	112	0.00	30.060 
14:55	52.8	52.8	52.8	57	38.0	1	4	68	0.00	30.062 
15:00	52.8	52.8	52.8	58	38.4	1	5	180	0.00	30.062 
15:05	52.6	52.6	52.6	58	38.2	0	1	90	0.00	30.061 
15:10	52.6	52.6	52.6	58	38.2	1	4	68	0.00	30.064 
15:15	52.6	52.6	52.6	58	38.2	0	3	90	0.00	30.063 
15:20	52.6	52.6	52.6	58	38.2	1	6	68	0.00	30.067 
15:25	52.6	52.6	52.6	57	37.8	2	5	90	0.00	30.074 
15:30	52.5	52.5	52.5	59	38.6	2	7	112	0.00	30.072 
15:35	52.5	52.5	52.5	59	38.6	1	5	90	0.00	30.068 
15:40	52.3	52.3	52.3	59	38.4	2	5	112	0.00	30.068 
15:45	52.2	52.2	52.2	60	38.7	1	3	112	0.00	30.071 
15:50	52.2	52.2	52.2	59	38.3	1	5	90	0.00	30.069 
15:55	52.0	52.0	52.0	61	39.0	1	5	68	0.00	30.069 
16:00	52.0	52.0	52.0	60	38.5	1	3	90	0.00	30.067 
16:05	51.9	51.9	51.9	61	38.9	1	5	68	0.00	30.068 
16:10	51.9	51.9	51.9	62	39.3	1	3	68	0.00	30.075 
16:15	51.9	51.9	51.9	61	38.9	1	4	112	0.00	30.076 
16:20	51.7	51.7	51.7	62	39.1	0	2	135	0.00	30.078 
16:25	51.7	51.7	51.7	61	38.7	1	4	112	0.00	30.079 
16:30	51.6	51.6	51.6	60	38.2	2	4	90	0.00	30.082 
16:35	51.6	51.6	51.6	60	38.2	1	3	112	0.00	30.081 
16:40	51.6	51.6	51.6	60	38.2	1	4	112	0.00	30.081 
16:45	51.6	51.6	51.6	59	37.7	1	6	112	0.00	30.080 
16:50	51.6	51.6	51.6	58	37.3	1	4	135	0.00	30.082 
16:55	51.4	51.4	51.4	58	37.1	1	4	90	0.00	30.085 
17:00	51.3	51.3	51.3	59	37.5	1	4	90	0.00	30.087 
17:05	51.1	51.1	51.1	59	37.3	1	3	112	0.00	30.089 
17:10	51.1	51.1	51.1	60	37.7	1	3	135	0.00	30.092 
17:15	51.0	51.0	51.0	61	38.0	0	3	90	0.00	30.094 
17:20	51.0	51.0	51.0	60	37.6	0	2	90	0.00	30.098 
17:25	51.0	51.0	51.0	61	38.0	1	3	112	0.00	30.105 
17:30	50.8	50.8	50.8	60	37.4	1	3	68	0.00	30.105 
17:35	50.7	50.7	50.7	60	37.3	1	4	90	0.00	30.105 
17:40	50.5	50.5	50.5	61	37.6	1	4	112	0.00	30.107 
17:45	50.4	50.4	50.4	62	37.9	0	2	68	0.00	30.108 
17:50	50.4	50.4	50.4	62	37.9	0	3	68	0.00	30.112 
17:55	50.2	50.2	50.2	62	37.7	0	2	68	0.00	30.117 
18:00	50.1	50.1	50.1	62	37.6	0	1	68	0.00	30.117 
18:05	49.8	49.8	49.8	64	38.1	0	2	68	0.00	30.115 
18:10	49.6	49.6	49.6	64	37.9	0	2	90	0.00	30.112 
18:15	49.4	49.4	49.4	65	38.1	0	1	90	0.00	30.115 
18:20	48.9	48.9	48.9	65	37.7	0	1	90	0.00	30.113 
18:25	48.8	48.8	48.8	65	37.6	0	1	90	0.00	30.114 
18:30	48.6	48.6	48.6	65	37.4	0	1	90	0.00	30.118 
18:35	48.5	48.5	48.5	66	37.7	0	2	90	0.00	30.122 
18:40	48.0	48.0	48.0	67	37.6	0	0	---	0.00	30.124 
18:45	47.9	47.9	47.9	67	37.5	0	1	90	0.00	30.117 
18:50	47.7	47.7	47.7	68	37.7	0	3	135	0.00	30.119 
18:55	47.4	47.4	47.4	68	37.4	0	0	---	0.00	30.119 
19:00	47.1	47.1	47.1	68	37.1	0	0	---	0.00	30.121 
19:05	47.1	47.1	47.1	69	37.5	0	1	135	0.00	30.125 
19:10	47.1	47.1	47.1	68	37.1	0	1	135	0.00	30.125 
19:15	47.1	47.1	47.1	69	37.5	0	1	135	0.00	30.121 
19:20	47.3	47.3	47.3	68	37.3	0	1	135	0.00	30.116 
19:25	47.4	47.4	47.4	68	37.4	0	2	112	0.00	30.115 
19:30	47.4	47.4	47.4	68	37.4	0	2	112	0.00	30.117 
19:35	47.4	47.4	47.4	68	37.4	0	1	112	0.00	30.117 
19:40	47.3	47.3	47.3	68	37.3	0	2	90	0.00	30.120 
19:45	47.1	47.1	47.1	69	37.5	0	1	90	0.00	30.121 
19:50	47.0	47.0	47.0	69	37.4	0	1	90	0.00	30.122 
19:55	46.8	46.8	46.8	69	37.2	0	1	90	0.00	30.126 
20:00	46.5	46.5	46.5	69	36.9	0	1	90	0.00	30.130 
20:05	46.4	46.4	46.4	69	36.8	0	3	135	0.00	30.130 
20:10	46.2	46.2	46.2	69	36.6	0	3	135	0.00	30.133 
20:15	46.1	46.1	46.1	69	36.5	0	5	112	0.00	30.134 
20:20	46.0	46.0	46.0	69	36.4	0	2	112	0.00	30.140 
20:25	45.8	45.8	45.8	69	36.2	0	3	68	0.00	30.144 
20:30	45.7	45.7	45.7	69	36.1	0	3	90	0.00	30.145 
20:35	45.7	45.7	45.7	69	36.1	0	1	248	0.00	30.145 
20:40	45.5	45.5	45.5	69	35.9	0	1	248	0.00	30.146 
20:45	45.4	45.4	45.4	69	35.8	0	2	248	0.00	30.147 
20:50	45.4	45.4	45.4	69	35.8	0	2	248	0.00	30.146 
20:55	45.5	45.5	45.5	68	35.6	1	5	135	0.00	30.147 
21:00	45.5	45.5	45.5	69	35.9	0	1	135	0.00	30.147 
21:05	45.5	45.5	45.5	68	35.6	1	4	135	0.00	30.145 
21:10	45.5	45.5	45.5	69	35.9	0	1	68	0.00	30.152 
21:15	45.5	45.5	45.5	69	35.9	0	3	135	0.00	30.157 
21:20	45.4	45.4	45.4	68	35.5	1	2	135	0.00	30.157 
21:25	45.2	45.2	45.2	69	35.6	0	4	112	0.00	30.155 
21:30	45.2	45.2	45.2	69	35.6	1	2	158	0.00	30.153 
21:35	45.1	45.1	45.1	70	35.9	0	1	202	0.00	30.155 
21:40	45.1	45.1	45.1	69	35.5	1	4	135	0.00	30.162 
21:45	44.9	44.9	44.9	70	35.7	0	1	135	0.00	30.161 
21:50	44.8	44.8	44.8	70	35.6	1	5	135	0.00	30.162 
21:55	44.8	44.8	44.8	71	36.0	0	1	135	0.00	30.162 
22:00	44.5	44.5	44.5	71	35.7	0	2	135	0.00	30.161 
22:05	44.3	44.3	44.3	72	35.9	0	3	45	0.00	30.160 
22:10	44.3	44.3	44.3	72	35.9	1	5	158	0.00	30.160 
22:15	44.2	44.2	44.2	72	35.8	0	2	112	0.00	30.161 
22:20	44.1	44.1	44.1	73	36.0	0	2	112	0.00	30.160 
22:25	43.9	43.9	43.9	74	36.2	0	1	90	0.00	30.162 
22:30	43.9	43.9	43.9	74	36.2	0	2	135	0.00	30.165 
22:35	43.8	43.8	43.8	74	36.1	0	2	135	0.00	30.164 
22:40	43.8	43.8	43.8	74	36.1	0	2	112	0.00	30.170 
22:45	43.8	43.8	43.8	75	36.4	1	3	112	0.00	30.168 
22:50	43.8	43.8	43.8	75	36.4	0	4	68	0.00	30.166 
22:55	43.6	43.6	43.6	75	36.2	1	5	68	0.00	30.169 
23:00	43.5	43.5	43.5	76	36.4	0	2	112	0.00	30.165 
23:05	43.3	43.3	43.3	76	36.3	1	5	45	0.00	30.168 
23:10	43.1	43.1	43.1	77	36.4	0	3	45	0.00	30.169 
23:15	43.1	43.1	43.1	76	36.1	1	4	90	0.00	30.172 
23:20	43.1	43.1	43.1	77	36.4	0	2	68	0.00	30.171 
23:25	42.9	42.9	42.9	77	36.2	0	4	45	0.00	30.171 
23:30	42.6	42.6	42.6	77	35.9	1	4	112	0.00	30.163 
23:35	42.6	42.6	42.6	78	36.2	1	5	112	0.00	30.162 
23:40	42.5	42.5	42.5	78	36.1	1	4	68	0.00	30.162 
23:45	42.3	42.3	42.3	78	35.9	1	3	68	0.00	30.162 
23:50	42.3	42.3	42.3	78	35.9	1	2	68	0.00	30.168 
23:55	42.3	42.3	42.3	78	35.9	1	3	112	0.00	30.167 

CoCoRaHS
IN-AL-39
A2 Web Hosting
Creative Commons License
GoDaddy
Look for:

loaded 2017-12-13 10:04:41 • last modified 2010-11-18 10:43:29
Privacy PolicyDisclaimer
• wx.awcolley.com is powered by PmWiki v.2002016 •
• all content (unless otherwise noted) © 2017 A W Colley